Time;durP1;ratioP1;P1;durP2;ratioP2;P2;SDS_P1;SDS_P2;PMS_P1;PMS_P2;Temp;Humidity;BMP_temperature;BMP_pressure;BME280_temperature;BME280_humidity;BME280_pressure;Samples;Min_cycle;Max_cycle;Signal;HPM_P1;HPM_P2
2023/01/31 00:01:11;;;;;;;17.15;15.45;;;;;;;;;;4225729;28;20270;-87
2023/01/31 00:03:32;;;;;;;13.45;12.38;;;;;;;;;;4208255;28;20422;-87
2023/01/31 00:05:52;;;;;;;14.73;11.98;;;;;;;;;;4221119;28;20078;-87
2023/01/31 00:08:14;;;;;;;17.15;13.18;;;;;;;;;;4220703;28;20107;-87
2023/01/31 00:10:34;;;;;;;25.05;18.58;;;;;;;;;;4220677;28;20114;-87
2023/01/31 00:12:54;;;;;;;17.48;16.10;;;;;;;;;;4222506;28;20130;-87
2023/01/31 00:15:15;;;;;;;24.13;20.23;;;;;;;;;;4209481;28;20235;-87
2023/01/31 00:17:35;;;;;;;25.13;18.00;;;;;;;;;;4224323;28;20059;-87
2023/01/31 00:19:55;;;;;;;17.48;15.63;;;;;;;;;;4227224;28;20119;-87
2023/01/31 00:22:15;;;;;;;16.75;15.23;;;;;;;;;;4225407;28;20251;-87
2023/01/31 00:24:36;;;;;;;15.55;11.68;;;;;;;;;;4226611;28;20104;-87
2023/01/31 00:26:57;;;;;;;12.15;9.73;;;;;;;;;;4212764;28;20056;-87
2023/01/31 00:29:17;;;;;;;11.50;10.88;;;;;;;;;;4225402;28;20038;-87
2023/01/31 00:31:37;;;;;;;10.70;9.90;;;;;;;;;;4227051;28;20275;-87
2023/01/31 00:33:59;;;;;;;9.32;8.52;;;;;;;;;;4210812;28;20066;-87
2023/01/31 00:36:21;;;;;;;9.25;8.65;;;;;;;;;;4223555;28;20054;-87
2023/01/31 00:38:42;;;;;;;10.43;10.02;;;;;;;;;;4212787;28;20047;-87
2023/01/31 00:41:03;;;;;;;11.60;10.60;;;;;;;;;;4207914;28;20405;-87
2023/01/31 00:43:23;;;;;;;12.55;10.45;;;;;;;;;;4224903;28;20043;-87
2023/01/31 00:45:43;;;;;;;12.20;11.23;;;;;;;;;;4224432;28;20047;-87
2023/01/31 00:48:03;;;;;;;11.38;10.65;;;;;;;;;;4223728;28;20051;-88
2023/01/31 00:50:24;;;;;;;11.77;11.07;;;;;;;;;;4223642;28;20043;-87
2023/01/31 00:52:44;;;;;;;13.75;11.75;;;;;;;;;;4220505;28;20051;-87
2023/01/31 00:55:05;;;;;;;10.00;9.55;;;;;;;;;;4222369;28;20099;-87
2023/01/31 00:57:25;;;;;;;10.35;9.75;;;;;;;;;;4223856;28;20270;-87
2023/01/31 00:59:45;;;;;;;10.23;9.63;;;;;;;;;;4224142;28;20050;-87
2023/01/31 01:02:05;;;;;;;12.32;11.25;;;;;;;;;;4222124;28;20401;-87
2023/01/31 01:04:26;;;;;;;11.57;10.95;;;;;;;;;;4207153;28;20087;-87
2023/01/31 01:06:46;;;;;;;11.10;10.02;;;;;;;;;;4221441;28;20452;-87
2023/01/31 01:09:06;;;;;;;13.30;8.52;;;;;;;;;;4215636;28;20066;-87
2023/01/31 01:11:28;;;;;;;9.85;9.15;;;;;;;;;;4223375;28;20047;-87
2023/01/31 01:13:49;;;;;;;10.25;9.55;;;;;;;;;;4224470;28;20219;-87
2023/01/31 01:16:10;;;;;;;9.23;8.38;;;;;;;;;;4207995;28;20097;-87
2023/01/31 01:18:34;;;;;;;10.95;10.15;;;;;;;;;;4210129;28;20087;-87
2023/01/31 01:20:54;;;;;;;;;;;;;;;;;;4222373;28;20362;-87
2023/01/31 01:23:14;;;;;;;13.13;12.20;;;;;;;;;;4225534;28;20245;-87
2023/01/31 01:25:44;;;;;;;15.02;13.77;;;;;;;;;;4223300;28;20062;-87
2023/01/31 01:28:04;;;;;;;15.45;13.93;;;;;;;;;;4223947;28;20145;-87
2023/01/31 01:30:25;;;;;;;17.10;15.65;;;;;;;;;;4226937;28;20047;-87
2023/01/31 01:32:45;;;;;;;15.73;14.32;;;;;;;;;;4220280;28;20078;-87
2023/01/31 01:35:06;;;;;;;12.98;12.18;;;;;;;;;;4224791;28;20370;-87
2023/01/31 01:37:27;;;;;;;13.13;11.98;;;;;;;;;;4224833;28;20043;-87
2023/01/31 01:39:51;;;;;;;12.88;11.48;;;;;;;;;;4219729;28;20288;-87
2023/01/31 01:42:19;;;;;;;11.70;10.90;;;;;;;;;;4223681;28;20043;-87
2023/01/31 01:44:42;;;;;;;13.38;12.32;;;;;;;;;;4223170;28;20089;-87
2023/01/31 01:47:02;;;;;;;17.45;12.13;;;;;;;;;;4208298;28;20285;-87
2023/01/31 01:49:34;;;;;;;13.30;11.98;;;;;;;;;;4220537;28;20366;-87
2023/01/31 01:51:55;;;;;;;12.23;11.18;;;;;;;;;;4220985;28;20065;-87
2023/01/31 01:54:22;;;;;;;10.80;9.50;;;;;;;;;;4223633;28;20110;-87
2023/01/31 01:56:45;;;;;;;13.07;9.80;;;;;;;;;;4222042;28;20035;-87
2023/01/31 01:59:08;;;;;;;10.88;9.93;;;;;;;;;;4206893;28;20043;-87
2023/01/31 02:01:31;;;;;;;10.75;9.82;;;;;;;;;;4218566;28;20077;-87
2023/01/31 02:03:51;;;;;;;10.18;9.68;;;;;;;;;;4210722;28;20073;-87
2023/01/31 02:06:12;;;;;;;9.40;8.90;;;;;;;;;;4210576;28;20051;-87
2023/01/31 02:08:33;;;;;;;10.88;9.88;;;;;;;;;;4219719;28;20043;-87
2023/01/31 02:11:00;;;;;;;10.63;10.07;;;;;;;;;;4208361;28;20047;-87
2023/01/31 02:13:21;;;;;;;11.85;10.93;;;;;;;;;;4208878;28;20231;-88
2023/01/31 02:15:42;;;;;;;13.93;12.77;;;;;;;;;;4223752;28;20082;-87
2023/01/31 02:18:02;;;;;;;15.65;14.20;;;;;;;;;;4208792;28;20048;-87
2023/01/31 02:20:31;;;;;;;12.50;11.57;;;;;;;;;;4222844;28;20076;-87
2023/01/31 02:22:51;;;;;;;12.18;11.50;;;;;;;;;;4209388;28;20071;-87
2023/01/31 02:25:21;;;;;;;12.82;11.73;;;;;;;;;;4221677;28;20108;-87
2023/01/31 02:27:54;;;;;;;14.30;12.73;;;;;;;;;;4223880;28;20089;-87
2023/01/31 02:30:23;;;;;;;13.30;12.07;;;;;;;;;;4224410;28;20086;-87
2023/01/31 02:32:50;;;;;;;14.98;13.77;;;;;;;;;;4222544;28;20405;-87
2023/01/31 02:35:21;;;;;;;16.30;15.07;;;;;;;;;;4224193;28;20074;-87
2023/01/31 02:38:03;;;;;;;14.95;14.10;;;;;;;;;;4221142;28;20050;-87
2023/01/31 02:40:41;;;;;;;17.10;15.35;;;;;;;;;;4186031;28;20075;-88
2023/01/31 02:43:20;;;;;;;14.63;13.65;;;;;;;;;;4208017;28;20094;-88
2023/01/31 02:46:04;;;;;;;14.68;13.63;;;;;;;;;;4220533;28;20043;-87
2023/01/31 02:48:32;;;;;;;12.48;11.95;;;;;;;;;;4219788;28;20039;-88
2023/01/31 02:50:59;;;;;;;13.32;12.40;;;;;;;;;;4222516;28;20043;-87
2023/01/31 02:53:29;;;;;;;12.15;11.75;;;;;;;;;;4220420;28;20247;-88
2023/01/31 02:56:13;;;;;;;12.93;12.25;;;;;;;;;;4221641;28;20043;-87
2023/01/31 02:58:35;;;;;;;14.48;13.38;;;;;;;;;;4221782;28;20035;-87
2023/01/31 03:00:58;;;;;;;14.40;13.65;;;;;;;;;;4222221;28;20378;-87
2023/01/31 03:03:21;;;;;;;12.07;11.48;;;;;;;;;;4221781;28;20104;-87
2023/01/31 03:05:41;;;;;;;14.43;13.10;;;;;;;;;;4221209;28;20079;-87
2023/01/31 03:08:04;;;;;;;12.93;12.07;;;;;;;;;;4220221;28;20043;-87
2023/01/31 03:10:24;;;;;;;13.27;12.48;;;;;;;;;;4220823;28;20358;-87
2023/01/31 03:12:45;;;;;;;13.35;12.25;;;;;;;;;;4223191;28;20110;-87
2023/01/31 03:15:12;;;;;;;16.08;14.93;;;;;;;;;;4207948;28;20058;-87
2023/01/31 03:17:32;;;;;;;13.38;12.75;;;;;;;;;;4220232;28;20049;-87
2023/01/31 03:19:58;;;;;;;13.45;12.65;;;;;;;;;;4221855;28;20061;-88
2023/01/31 03:22:23;;;;;;;13.50;12.40;;;;;;;;;;4208293;28;20086;-87
2023/01/31 03:24:46;;;;;;;15.50;14.48;;;;;;;;;;4223638;28;20090;-88
2023/01/31 03:27:06;;;;;;;15.85;14.90;;;;;;;;;;4225060;28;20397;-87
2023/01/31 03:29:27;;;;;;;13.13;12.40;;;;;;;;;;4222138;28;20235;-87
2023/01/31 03:31:53;;;;;;;13.30;12.27;;;;;;;;;;4220811;28;20125;-88
2023/01/31 03:34:14;;;;;;;13.25;12.30;;;;;;;;;;4221669;28;20046;-87
2023/01/31 03:36:40;;;;;;;13.35;12.48;;;;;;;;;;4218254;28;20409;-87
2023/01/31 03:39:12;;;;;;;12.45;11.80;;;;;;;;;;4209325;28;20055;-88
2023/01/31 03:41:42;;;;;;;12.85;12.00;;;;;;;;;;4209524;28;20047;-87
2023/01/31 03:44:28;;;;;;;11.95;10.70;;;;;;;;;;4223645;28;20079;-88
2023/01/31 03:47:00;;;;;;;11.70;11.10;;;;;;;;;;4197496;28;20055;-87
2023/01/31 03:49:21;;;;;;;12.00;11.13;;;;;;;;;;4207701;28;20043;-88
2023/01/31 03:51:45;;;;;;;12.18;11.57;;;;;;;;;;4225637;28;20047;-88
2023/01/31 03:54:07;;;;;;;12.45;11.43;;;;;;;;;;4208958;28;20146;-88
2023/01/31 03:56:30;;;;;;;14.68;14.00;;;;;;;;;;4224682;28;20047;-88
2023/01/31 03:58:52;;;;;;;13.80;13.02;;;;;;;;;;4219708;28;20111;-87
2023/01/31 04:01:14;;;;;;;15.38;14.55;;;;;;;;;;4222856;28;20047;-88
2023/01/31 04:03:40;;;;;;;16.52;15.02;;;;;;;;;;4223517;28;20051;-87
2023/01/31 04:06:01;;;;;;;15.38;14.27;;;;;;;;;;4222062;28;20099;-88
2023/01/31 04:08:21;;;;;;;16.00;14.98;;;;;;;;;;4225385;28;20047;-88
2023/01/31 04:10:42;;;;;;;15.38;14.45;;;;;;;;;;4224651;28;20382;-88
2023/01/31 04:13:02;;;;;;;16.02;15.15;;;;;;;;;;4227884;28;20103;-88
2023/01/31 04:15:22;;;;;;;15.27;14.32;;;;;;;;;;4225170;28;20154;-88
2023/01/31 04:17:42;;;;;;;16.70;15.45;;;;;;;;;;4223599;28;20050;-88
2023/01/31 04:20:04;;;;;;;15.98;14.55;;;;;;;;;;4210401;28;20068;-88
2023/01/31 04:22:25;;;;;;;13.57;12.63;;;;;;;;;;4222501;28;20081;-88
2023/01/31 04:24:46;;;;;;;15.02;13.93;;;;;;;;;;4224282;28;20080;-88
2023/01/31 04:27:07;;;;;;;14.43;13.13;;;;;;;;;;4213425;28;20078;-88
2023/01/31 04:29:27;;;;;;;13.43;12.55;;;;;;;;;;4208410;28;20090;-88
2023/01/31 04:31:47;;;;;;;14.38;13.30;;;;;;;;;;4225045;28;20055;-88
2023/01/31 04:34:07;;;;;;;14.35;13.32;;;;;;;;;;4208256;28;20039;-88
2023/01/31 04:36:27;;;;;;;17.48;15.15;;;;;;;;;;4225145;28;20047;-88
2023/01/31 04:38:47;;;;;;;13.52;12.40;;;;;;;;;;4221399;28;20084;-88
2023/01/31 04:41:07;;;;;;;14.00;13.25;;;;;;;;;;4209140;28;20047;-88
2023/01/31 04:43:27;;;;;;;13.27;12.40;;;;;;;;;;4229493;28;20077;-88
2023/01/31 04:45:48;;;;;;;18.30;13.15;;;;;;;;;;4224046;28;20402;-88
2023/01/31 04:48:08;;;;;;;16.65;15.55;;;;;;;;;;4210317;28;20091;-88
2023/01/31 04:50:28;;;;;;;20.33;16.95;;;;;;;;;;4225332;28;20250;-88
2023/01/31 04:52:49;;;;;;;17.35;16.02;;;;;;;;;;4207774;28;20179;-88
2023/01/31 04:55:09;;;;;;;17.42;16.02;;;;;;;;;;4219823;28;20046;-88
2023/01/31 04:57:30;;;;;;;16.80;15.48;;;;;;;;;;4218667;28;20051;-88
2023/01/31 04:59:51;;;;;;;17.95;16.40;;;;;;;;;;4224071;28;20374;-88
2023/01/31 05:02:13;;;;;;;15.60;14.60;;;;;;;;;;4208221;28;20381;-88
2023/01/31 05:04:34;;;;;;;15.55;14.30;;;;;;;;;;4211728;28;20070;-88
2023/01/31 05:06:54;;;;;;;20.05;14.35;;;;;;;;;;4223690;28;20362;-88
2023/01/31 05:09:15;;;;;;;15.48;14.18;;;;;;;;;;4210301;28;20051;-88
2023/01/31 05:11:35;;;;;;;17.10;15.25;;;;;;;;;;4225889;28;20099;-88
2023/01/31 05:13:55;;;;;;;17.65;16.42;;;;;;;;;;4221722;28;20119;-88
2023/01/31 05:16:16;;;;;;;15.20;14.10;;;;;;;;;;4224613;28;20142;-89
2023/01/31 05:18:37;;;;;;;13.20;12.20;;;;;;;;;;4207774;28;20079;-88
2023/01/31 05:20:57;;;;;;;13.98;13.30;;;;;;;;;;4224362;28;20051;-88
2023/01/31 05:23:17;;;;;;;15.25;13.73;;;;;;;;;;4222593;28;20079;-88
2023/01/31 05:25:37;;;;;;;12.48;11.57;;;;;;;;;;4225340;28;20046;-88
2023/01/31 05:27:57;;;;;;;12.98;12.35;;;;;;;;;;4221186;28;20231;-88
2023/01/31 05:30:18;;;;;;;14.18;13.20;;;;;;;;;;4221481;28;20095;-88
2023/01/31 05:32:40;;;;;;;14.35;13.52;;;;;;;;;;4223849;28;20403;-89
2023/01/31 05:35:00;;;;;;;14.00;13.13;;;;;;;;;;4220440;28;20279;-89
2023/01/31 05:37:20;;;;;;;15.00;13.77;;;;;;;;;;4227582;28;20409;-88
2023/01/31 05:39:40;;;;;;;15.70;14.65;;;;;;;;;;4222391;28;20056;-89
2023/01/31 05:42:01;;;;;;;14.52;13.40;;;;;;;;;;4214270;28;20129;-89
2023/01/31 05:44:22;;;;;;;14.25;13.43;;;;;;;;;;4222805;28;20119;-88
2023/01/31 05:46:42;;;;;;;23.02;20.63;;;;;;;;;;4220975;28;20047;-89
2023/01/31 05:49:03;;;;;;;16.25;15.20;;;;;;;;;;4224261;28;20078;-88
2023/01/31 05:51:23;;;;;;;15.13;13.93;;;;;;;;;;4208381;28;20398;-89
2023/01/31 05:53:47;;;;;;;17.75;16.27;;;;;;;;;;4206269;28;20048;-88
2023/01/31 05:56:07;;;;;;;17.48;15.82;;;;;;;;;;4219263;28;20042;-89
2023/01/31 05:58:28;;;;;;;14.43;13.40;;;;;;;;;;4220311;28;20374;-88
2023/01/31 06:00:48;;;;;;;12.00;11.63;;;;;;;;;;4206532;28;20495;-88
2023/01/31 06:03:08;;;;;;;13.38;12.23;;;;;;;;;;4211266;28;20090;-88
2023/01/31 06:05:29;;;;;;;12.63;11.98;;;;;;;;;;4221834;28;20378;-88
2023/01/31 06:07:49;;;;;;;14.85;14.00;;;;;;;;;;4222366;28;20090;-89
2023/01/31 06:10:10;;;;;;;14.32;13.43;;;;;;;;;;4210366;28;20374;-89
2023/01/31 06:12:30;;;;;;;15.50;14.40;;;;;;;;;;4209234;28;20074;-89
2023/01/31 06:14:50;;;;;;;16.52;15.25;;;;;;;;;;4223605;28;20073;-88
2023/01/31 06:17:10;;;;;;;24.25;18.48;;;;;;;;;;4221273;28;20047;-88
2023/01/31 06:19:30;;;;;;;21.08;18.77;;;;;;;;;;4207181;28;20274;-89
2023/01/31 06:21:51;;;;;;;20.38;18.17;;;;;;;;;;4223475;28;20059;-87
2023/01/31 06:24:11;;;;;;;18.63;16.75;;;;;;;;;;4224654;28;20046;-87
2023/01/31 06:26:32;;;;;;;19.52;17.88;;;;;;;;;;4222702;28;20051;-91
2023/01/31 06:28:52;;;;;;;32.30;27.65;;;;;;;;;;4209527;28;20048;-91
2023/01/31 06:31:13;;;;;;;23.98;21.52;;;;;;;;;;4221580;28;20314;-91
2023/01/31 06:33:34;;;;;;;31.20;27.92;;;;;;;;;;4220556;28;20048;-92
2023/01/31 06:36:07;;;;;;;27.55;24.27;;;;;;;;;;4219357;28;20088;-92
2023/01/31 06:38:28;;;;;;;24.65;22.52;;;;;;;;;;4207212;28;20059;-92
2023/01/31 06:40:48;;;;;;;23.17;20.95;;;;;;;;;;4227619;28;20073;-91
2023/01/31 06:43:08;;;;;;;20.98;18.83;;;;;;;;;;4224463;28;20063;-93
2023/01/31 06:45:29;;;;;;;17.23;15.77;;;;;;;;;;4220704;28;20082;-90
2023/01/31 06:47:49;;;;;;;19.02;17.50;;;;;;;;;;4224482;28;20047;-90
2023/01/31 06:50:10;;;;;;;27.00;23.42;;;;;;;;;;4210018;28;20288;-89
2023/01/31 06:52:30;;;;;;;22.60;20.27;;;;;;;;;;4222020;28;20058;-90
2023/01/31 06:54:51;;;;;;;19.92;18.15;;;;;;;;;;4220022;28;20101;-90
2023/01/31 06:57:11;;;;;;;19.38;17.80;;;;;;;;;;4219419;28;20107;-90
2023/01/31 06:59:31;;;;;;;18.48;17.00;;;;;;;;;;4221304;28;20044;-89
2023/01/31 07:01:52;;;;;;;20.17;17.10;;;;;;;;;;4208256;28;20083;-90
2023/01/31 07:04:13;;;;;;;30.90;23.00;;;;;;;;;;4206421;28;20055;-90
2023/01/31 07:06:33;;;;;;;19.92;18.25;;;;;;;;;;4221551;28;20059;-91
2023/01/31 07:08:54;;;;;;;23.23;21.10;;;;;;;;;;4224308;28;20043;-91
2023/01/31 07:11:14;;;;;;;20.75;19.27;;;;;;;;;;4208857;28;20066;-90
2023/01/31 07:13:34;;;;;;;21.33;19.75;;;;;;;;;;4226898;28;20062;-90
2023/01/31 07:15:55;;;;;;;37.80;34.08;;;;;;;;;;4214434;28;20047;-90
2023/01/31 07:18:16;;;;;;;25.00;22.80;;;;;;;;;;4223918;28;20047;-90
2023/01/31 07:20:36;;;;;;;25.85;23.65;;;;;;;;;;4225822;28;20051;-90
2023/01/31 07:22:57;;;;;;;25.88;23.58;;;;;;;;;;4225639;28;20243;-90
2023/01/31 07:25:18;;;;;;;19.70;18.30;;;;;;;;;;4209287;28;20080;-90
2023/01/31 07:27:38;;;;;;;32.22;29.20;;;;;;;;;;4221804;28;20082;-90
2023/01/31 07:29:59;;;;;;;30.83;28.23;;;;;;;;;;4209632;28;20047;-90
2023/01/31 07:32:19;;;;;;;23.85;21.42;;;;;;;;;;4222172;28;20052;-90
2023/01/31 07:34:39;;;;;;;22.15;19.98;;;;;;;;;;4210586;28;20390;-90
2023/01/31 07:37:00;;;;;;;19.48;17.60;;;;;;;;;;4224659;28;20133;-90
2023/01/31 07:39:20;;;;;;;21.23;19.08;;;;;;;;;;4229196;28;20038;-91
2023/01/31 07:41:40;;;;;;;19.95;18.55;;;;;;;;;;4224770;28;20054;-90
2023/01/31 07:44:00;;;;;;;19.13;17.55;;;;;;;;;;4223849;28;20047;-89
2023/01/31 07:46:20;;;;;;;15.88;14.57;;;;;;;;;;4226788;28;20047;-89
2023/01/31 07:48:41;;;;;;;15.68;14.45;;;;;;;;;;4225984;28;20394;-90
2023/01/31 07:51:02;;;;;;;28.98;22.45;;;;;;;;;;4221123;28;20105;-91
2023/01/31 07:53:22;;;;;;;21.60;18.88;;;;;;;;;;4224173;28;20043;-90
2023/01/31 07:55:46;;;;;;;28.58;25.50;;;;;;;;;;4221819;28;20100;-90
2023/01/31 07:58:06;;;;;;;29.90;24.30;;;;;;;;;;4212366;28;20062;-90
2023/01/31 08:05:46;;;;;;;82.97;52.60;;;;;;;;;;4225366;28;20044;-90
2023/01/31 08:08:10;;;;;;;80.80;53.92;;;;;;;;;;4216737;28;20227;-91
2023/01/31 08:10:30;;;;;;;74.00;44.47;;;;;;;;;;4215240;28;20055;-90
2023/01/31 08:12:50;;;;;;;78.38;45.47;;;;;;;;;;4215019;28;20447;-91
2023/01/31 08:15:11;;;;;;;28.73;25.70;;;;;;;;;;4211148;28;20094;-91
2023/01/31 08:17:31;;;;;;;79.13;44.25;;;;;;;;;;4224085;28;20055;-91
2023/01/31 08:19:52;;;;;;;40.67;31.92;;;;;;;;;;4224671;28;20046;-91
2023/01/31 08:22:12;;;;;;;30.08;27.35;;;;;;;;;;4212923;28;20047;-91
2023/01/31 08:24:32;;;;;;;18.85;16.95;;;;;;;;;;4208852;28;20083;-90
2023/01/31 08:26:53;;;;;;;19.83;18.05;;;;;;;;;;4209962;28;20055;-91
2023/01/31 08:29:13;;;;;;;18.63;17.08;;;;;;;;;;4222582;28;20047;-91
2023/01/31 08:31:33;;;;;;;17.40;15.88;;;;;;;;;;4220517;28;20077;-91
2023/01/31 08:33:54;;;;;;;17.92;16.52;;;;;;;;;;4221934;28;20055;-91
2023/01/31 08:36:30;;;;;;;22.33;20.52;;;;;;;;;;4223083;28;20051;-90
2023/01/31 08:38:51;;;;;;;26.45;22.02;;;;;;;;;;4215040;28;20064;-91
2023/01/31 08:41:12;;;;;;;51.65;39.00;;;;;;;;;;4210660;28;20418;-90
2023/01/31 08:43:32;;;;;;;30.85;26.58;;;;;;;;;;4225089;28;20047;-90
2023/01/31 08:46:12;;;;;;;19.30;17.48;;;;;;;;;;4212212;28;20043;-89
2023/01/31 08:48:33;;;;;;;19.17;17.38;;;;;;;;;;4222928;28;20400;-89
2023/01/31 08:50:53;;;;;;;28.00;22.90;;;;;;;;;;4221643;28;20243;-88
2023/01/31 08:53:13;;;;;;;24.23;21.05;;;;;;;;;;4208924;28;20043;-91
2023/01/31 08:55:34;;;;;;;67.68;36.25;;;;;;;;;;4209241;28;20124;-91
2023/01/31 08:57:56;;;;;;;84.10;50.22;;;;;;;;;;4222165;28;20054;-91
2023/01/31 09:00:20;;;;;;;56.55;38.63;;;;;;;;;;4208391;28;20090;-90
2023/01/31 09:02:41;;;;;;;49.63;36.70;;;;;;;;;;4222135;28;20051;-91
2023/01/31 09:05:01;;;;;;;51.80;31.35;;;;;;;;;;4223503;28;20154;-90
2023/01/31 09:07:22;;;;;;;44.92;30.02;;;;;;;;;;4209494;28;20047;-91
2023/01/31 09:09:42;;;;;;;38.78;30.27;;;;;;;;;;4224308;28;20094;-90
2023/01/31 09:12:03;;;;;;;30.35;26.35;;;;;;;;;;4212678;28;20063;-90
2023/01/31 09:14:24;;;;;;;32.95;26.50;;;;;;;;;;4218698;28;20393;-89
2023/01/31 09:16:47;;;;;;;30.75;26.00;;;;;;;;;;4224983;28;20074;-90
2023/01/31 09:19:07;;;;;;;26.33;23.30;;;;;;;;;;4222440;28;20228;-89
2023/01/31 09:21:28;;;;;;;29.98;25.30;;;;;;;;;;4224082;28;20362;-90
2023/01/31 09:23:48;;;;;;;30.83;26.50;;;;;;;;;;4224113;28;20415;-90
2023/01/31 09:26:08;;;;;;;41.45;29.85;;;;;;;;;;4220331;28;20244;-89
2023/01/31 09:28:29;;;;;;;35.80;28.77;;;;;;;;;;4222278;28;20154;-90
2023/01/31 09:30:53;;;;;;;43.10;33.65;;;;;;;;;;4207266;28;20187;-89
2023/01/31 09:33:14;;;;;;;42.63;29.90;;;;;;;;;;4224978;28;20150;-90
2023/01/31 09:35:34;;;;;;;32.92;25.83;;;;;;;;;;4219705;28;20097;-90
2023/01/31 09:37:54;;;;;;;29.67;23.90;;;;;;;;;;4230481;28;20047;-91
2023/01/31 09:40:22;;;;;;;21.75;19.67;;;;;;;;;;4223635;28;20047;-89
2023/01/31 09:42:43;;;;;;;26.75;23.88;;;;;;;;;;4207377;28;20386;-91
2023/01/31 09:45:06;;;;;;;49.45;36.78;;;;;;;;;;4223034;28;20043;-90
2023/01/31 09:47:28;;;;;;;18.52;16.95;;;;;;;;;;4219896;28;20125;-90
2023/01/31 09:49:52;;;;;;;38.85;28.98;;;;;;;;;;4218564;28;20043;-90
2023/01/31 09:52:12;;;;;;;18.92;17.23;;;;;;;;;;4207720;28;20112;-90
2023/01/31 09:54:37;;;;;;;27.52;23.27;;;;;;;;;;4220961;28;20089;-90
2023/01/31 09:57:05;;;;;;;18.75;16.88;;;;;;;;;;4208641;28;20067;-90
2023/01/31 09:59:30;;;;;;;13.82;12.82;;;;;;;;;;4222520;28;20243;-90
2023/01/31 10:02:06;;;;;;;10.90;10.25;;;;;;;;;;4222814;28;20074;-90
2023/01/31 10:04:27;;;;;;;14.77;13.40;;;;;;;;;;4223420;28;20063;-89
2023/01/31 10:06:48;;;;;;;9.32;8.88;;;;;;;;;;4223438;28;20046;-90
2023/01/31 10:09:12;;;;;;;9.57;9.13;;;;;;;;;;4210393;28;20040;-90
2023/01/31 10:11:36;;;;;;;12.02;10.68;;;;;;;;;;4222715;28;20377;-90
2023/01/31 10:14:00;;;;;;;12.70;11.52;;;;;;;;;;4203343;28;20050;-90
2023/01/31 10:16:30;;;;;;;11.20;10.23;;;;;;;;;;4223251;28;20050;-90
2023/01/31 10:18:55;;;;;;;10.30;9.65;;;;;;;;;;4207781;28;20036;-91
2023/01/31 10:21:18;;;;;;;11.88;11.18;;;;;;;;;;4223009;28;20109;-90
2023/01/31 10:23:38;;;;;;;;;;;;;;;;;;4222268;28;20088;-90
2023/01/31 10:25:58;;;;;;;14.48;13.55;;;;;;;;;;4219830;28;20146;-91
2023/01/31 10:28:25;;;;;;;11.95;10.75;;;;;;;;;;4223301;28;20082;-90
2023/01/31 10:30:54;;;;;;;12.73;11.73;;;;;;;;;;4220861;28;20039;-90
2023/01/31 10:33:33;;;;;;;10.38;9.65;;;;;;;;;;4202097;28;20397;-91
2023/01/31 10:35:55;;;;;;;8.82;8.07;;;;;;;;;;4227009;28;20093;-90
2023/01/31 10:38:19;;;;;;;8.47;7.60;;;;;;;;;;4224445;28;20417;-90
2023/01/31 10:40:42;;;;;;;11.75;10.18;;;;;;;;;;4226130;28;20248;-89
2023/01/31 10:43:22;;;;;;;9.93;9.43;;;;;;;;;;4225308;28;20043;-89
2023/01/31 10:45:43;;;;;;;10.73;9.63;;;;;;;;;;4208560;28;20282;-90
2023/01/31 10:48:18;;;;;;;9.85;9.13;;;;;;;;;;4214584;28;20044;-89
2023/01/31 10:50:41;;;;;;;11.57;10.57;;;;;;;;;;4209712;28;20051;-89
2023/01/31 10:53:01;;;;;;;;;;;;;;;;;;4223238;28;20087;-90
2023/01/31 10:55:21;;;;;;;11.15;10.20;;;;;;;;;;4225780;28;19923;-89
2023/01/31 10:57:41;;;;;;;13.07;11.73;;;;;;;;;;4224811;28;20043;-90
2023/01/31 11:00:02;;;;;;;9.35;8.68;;;;;;;;;;4215112;28;20048;-90
2023/01/31 11:02:23;;;;;;;21.85;16.27;;;;;;;;;;4225677;28;20055;-90
2023/01/31 11:04:44;;;;;;;16.13;14.68;;;;;;;;;;4210663;28;20081;-90
2023/01/31 11:07:05;;;;;;;16.75;15.02;;;;;;;;;;4228506;28;20044;-90
2023/01/31 11:09:27;;;;;;;14.32;12.82;;;;;;;;;;4214979;28;20052;-90
2023/01/31 11:11:56;;;;;;;17.27;12.52;;;;;;;;;;4220283;28;20048;-89
2023/01/31 11:14:17;;;;;;;15.02;12.18;;;;;;;;;;4226394;28;20074;-90
2023/01/31 11:16:39;;;;;;;15.10;13.60;;;;;;;;;;4224569;28;20079;-90
2023/01/31 11:19:02;;;;;;;6.13;5.68;;;;;;;;;;4225186;28;20386;-90
2023/01/31 11:21:30;;;;;;;5.90;5.68;;;;;;;;;;4210994;28;20043;-90
2023/01/31 11:23:50;;;;;;;6.63;6.13;;;;;;;;;;4219805;28;20062;-91
2023/01/31 11:26:12;;;;;;;6.63;6.10;;;;;;;;;;4221924;28;20329;-90
2023/01/31 11:28:37;;;;;;;5.28;5.07;;;;;;;;;;4209657;28;20307;-91
2023/01/31 11:30:58;;;;;;;3.47;3.33;;;;;;;;;;4209327;28;20113;-90
2023/01/31 11:33:37;;;;;;;4.78;4.50;;;;;;;;;;4225940;28;20043;-90
2023/01/31 11:35:58;;;;;;;3.67;3.58;;;;;;;;;;4233302;28;20107;-90
2023/01/31 11:38:23;;;;;;;3.42;3.33;;;;;;;;;;4210858;28;20056;-91
2023/01/31 11:40:43;;;;;;;3.78;3.67;;;;;;;;;;4228097;28;20051;-91
2023/01/31 11:43:22;;;;;;;4.10;3.90;;;;;;;;;;4213126;28;20353;-91
2023/01/31 11:45:46;;;;;;;5.32;4.88;;;;;;;;;;4209213;28;20280;-90
2023/01/31 11:48:11;;;;;;;4.03;3.92;;;;;;;;;;4207565;28;20114;-90
2023/01/31 11:50:38;;;;;;;3.28;3.00;;;;;;;;;;4209562;28;20050;-90
2023/01/31 11:53:00;;;;;;;4.10;3.40;;;;;;;;;;4224598;28;20108;-89
2023/01/31 11:55:20;;;;;;;3.45;3.33;;;;;;;;;;4210722;28;20047;-89
2023/01/31 11:57:41;;;;;;;2.95;2.92;;;;;;;;;;4224912;28;20063;-89
2023/01/31 12:00:03;;;;;;;3.40;3.30;;;;;;;;;;4217556;28;20047;-90
2023/01/31 12:02:40;;;;;;;3.83;3.60;;;;;;;;;;4224574;28;20047;-90
2023/01/31 12:05:01;;;;;;;3.72;3.55;;;;;;;;;;4214430;28;20120;-89
2023/01/31 12:07:24;;;;;;;3.75;3.60;;;;;;;;;;4225509;28;20043;-90
2023/01/31 12:09:45;;;;;;;3.63;3.42;;;;;;;;;;4221368;28;20043;-89
2023/01/31 12:12:20;;;;;;;3.70;3.50;;;;;;;;;;4221022;28;20086;-90
2023/01/31 12:14:41;;;;;;;3.53;3.22;;;;;;;;;;4224239;28;20073;-90
2023/01/31 12:17:02;;;;;;;3.78;3.67;;;;;;;;;;4223783;28;20059;-90
2023/01/31 12:19:32;;;;;;;3.05;2.95;;;;;;;;;;4210182;28;20035;-90
2023/01/31 12:21:56;;;;;;;3.38;2.92;;;;;;;;;;4221974;28;20055;-90
2023/01/31 12:24:33;;;;;;;3.08;2.75;;;;;;;;;;4223298;28;20059;-89
2023/01/31 12:27:03;;;;;;;2.88;2.78;;;;;;;;;;4227451;28;20051;-90
2023/01/31 12:29:35;;;;;;;3.30;2.42;;;;;;;;;;4224939;28;20082;-90
2023/01/31 12:32:02;;;;;;;3.03;2.92;;;;;;;;;;4192598;28;20047;-90
2023/01/31 12:34:42;;;;;;;2.60;2.50;;;;;;;;;;4225127;28;20171;-90
2023/01/31 12:37:20;;;;;;;3.00;2.80;;;;;;;;;;4201973;28;20395;-90
2023/01/31 12:39:50;;;;;;;2.25;2.15;;;;;;;;;;4224394;28;20051;-90
2023/01/31 12:42:36;;;;;;;2.05;1.98;;;;;;;;;;4210317;28;20462;-90
2023/01/31 12:44:57;;;;;;;2.30;2.20;;;;;;;;;;4210598;28;20066;-90
2023/01/31 12:47:30;;;;;;;3.35;3.25;;;;;;;;;;4213784;28;20050;-90
2023/01/31 12:49:57;;;;;;;2.67;2.47;;;;;;;;;;4223518;28;20317;-90
2023/01/31 12:52:18;;;;;;;2.08;2.08;;;;;;;;;;4208186;28;20074;-90
2023/01/31 12:54:47;;;;;;;2.28;1.80;;;;;;;;;;4217887;28;20116;-90
2023/01/31 12:57:17;;;;;;;2.00;2.00;;;;;;;;;;4206540;28;20043;-91
2023/01/31 12:59:52;;;;;;;2.80;2.70;;;;;;;;;;4211520;28;20055;-91
2023/01/31 13:02:32;;;;;;;2.63;2.60;;;;;;;;;;4208003;28;20040;-90
2023/01/31 13:05:08;;;;;;;2.63;2.53;;;;;;;;;;4212201;28;20047;-90
2023/01/31 13:07:32;;;;;;;2.33;2.33;;;;;;;;;;4223039;28;20047;-90
2023/01/31 13:09:54;;;;;;;2.50;2.50;;;;;;;;;;4219424;28;20231;-90
2023/01/31 13:12:18;;;;;;;2.50;2.40;;;;;;;;;;4208971;28;20046;-90
2023/01/31 13:14:42;;;;;;;2.58;2.50;;;;;;;;;;4208795;28;20055;-90
2023/01/31 13:17:04;;;;;;;2.28;2.28;;;;;;;;;;4221933;28;20231;-90
2023/01/31 13:19:33;;;;;;;3.73;3.63;;;;;;;;;;4207679;28;20079;-89
2023/01/31 13:21:56;;;;;;;2.25;2.22;;;;;;;;;;4220557;28;20286;-90
2023/01/31 13:24:26;;;;;;;1.98;1.98;;;;;;;;;;4226751;28;20093;-90
2023/01/31 13:26:49;;;;;;;2.78;2.58;;;;;;;;;;4223945;28;20138;-90
2023/01/31 13:29:14;;;;;;;1.83;1.83;;;;;;;;;;4220344;28;20050;-90
2023/01/31 13:31:39;;;;;;;2.72;2.72;;;;;;;;;;4220704;28;20070;-90
2023/01/31 13:34:04;;;;;;;2.42;2.40;;;;;;;;;;4224630;28;20047;-89
2023/01/31 13:36:33;;;;;;;1.98;1.98;;;;;;;;;;4212094;28;20113;-90
2023/01/31 13:38:53;;;;;;;2.95;2.85;;;;;;;;;;4224354;28;20035;-90
2023/01/31 13:41:30;;;;;;;1.63;1.63;;;;;;;;;;4222677;28;20059;-90
2023/01/31 13:43:51;;;;;;;2.63;2.47;;;;;;;;;;4206729;28;20070;-90
2023/01/31 13:46:12;;;;;;;2.97;2.88;;;;;;;;;;4219668;28;20062;-90
2023/01/31 13:48:33;;;;;;;2.50;2.50;;;;;;;;;;4223198;28;20077;-89
2023/01/31 13:50:55;;;;;;;2.70;2.60;;;;;;;;;;4222483;28;20055;-90
2023/01/31 13:53:36;;;;;;;3.17;3.05;;;;;;;;;;4219759;28;20107;-90
2023/01/31 13:55:56;;;;;;;2.72;2.70;;;;;;;;;;4220286;28;20270;-89
2023/01/31 13:58:30;;;;;;;2.20;2.20;;;;;;;;;;4211078;28;20044;-90
2023/01/31 14:00:58;;;;;;;1.88;1.88;;;;;;;;;;4207850;28;20038;-90
2023/01/31 14:03:19;;;;;;;2.92;2.83;;;;;;;;;;4211417;28;20058;-89
2023/01/31 14:05:49;;;;;;;2.22;2.13;;;;;;;;;;4222253;28;20054;-89